To NAV CANADA Home Page Login to a new session Search on AWWS site Disclaimer Vers la page française équivalente Tips FAQ What's new on the site To the Forecasts and Observations / NOTAM section To "File a Flight Plan" website Publications and other links Update of the User's profile FIC Telephone Numbers My Weather Data Folder Route Weather Data Regional Weather Data Local Weather Data To the Forecasts and Observations / NOTAM section
Request Generated 04/24/2019 at 16:17:18 UTC . Weather information available at that time is displayed.

METAR/TAF

MONTREAL INTL (MIRABEL)/QC    

METAR CYMX 241600Z 35005KT 4SM -DZRA BR BKN005 BKN012 OVC021 04/03 A2969 RMK SF6SC1SC1 SLP060=
METAR CYMX 241500Z 36004KT 340V040 3SM R06/5500VP6000FT/U R11/5500FT/N -DZRA BR OVC004 03/03 A2967 RMK SF8 SLP053=
METAR CYMX 241400Z 05005KT 330V070 3SM -DZRA BR BKN005 OVC014 03/03 A2965 RMK FG1SF6ST1 -RA INTMT SLP046=

TAF CYMX 241138Z 2412/2512 VRB03KT 2SM -RA BR BKN003 OVC010 TEMPO
2412/2415 6SM -DZ BR SCT003 OVC010
FM241500 23007KT 4SM -RA BR BKN006 OVC010 TEMPO 2415/2419 P6SM
-DZ OVC012
FM241900 36006KT P6SM -RA -DZ OVC012
FM242300 31005KT P6SM OVC015
FM250800 05005KT 4SM -DZ BR BKN008 OVC015
RMK NXT FCST BY 241800Z=
Your time UTC time
Weather data provided by Environment Canada and NAV CANADA